Aérodrome :
LOGIN :

S'inscrire | Disclaimer

   EN    FR    IT 

 










Légende :    VFR   VFR Marginal   IFR   IFR Intensif   IFR Très Intensif
Visi : 
Plafond : 
>= 8 km
>= 3000ft
5 à 8 km
1000 à 3000 ft
1500m à 5 km
500 à 1000 ft
800 à 1500m
200 à 500 ft
< 800m
< 200 ft
Symboles :   Orages  Brouillard  Fortes neiges  Fortes précipitations  Vent > 20 kt
SIGMETs :   Divers  Orages  Givrage  Turbulence  Onde Orograph.  Cendres Volcan.







- Altitude de l'aérodrome : 3 ft
- Code IATA : DHR


EHKD - Den Helder De Kooy

DERNIER METAR :
  • 210255Z AUTO 19004KT 9000 BR OVC270 M04/M05 Q1022 BLU

METARs EXPIRÉS :
  • 210225Z AUTO 20003KT 7000 BR NCD M06/M06 Q1023 WHT
  • 210155Z AUTO 19003KT 7000 BR NCD M05/M05 Q1023 WHT
  • 210125Z AUTO 19003KT 6000 BR SCT310 M05/M06 Q1023 WHT
  • 210055Z AUTO VRB01KT 8000 BR OVC280 M05/M05 Q1023 BLU
  • 210031Z AUTO 18002KT 6000 BR OVC290 M06/M06 Q1023 WHT
  • 202357Z AUTO 23002KT 7000 BR NCD M05/M06 Q1023 WHT

TAF TAF EHKD
Valide du 21 à 02h jusqu'au 21 à 14h UTC


210121Z 2102/2114 VRB02KT 8000 NSC
PROB30 2102/2108 1500 MIFG
BECMG 2105/2107 27005KT
Pas de NOTAMs connus pour ce terrain.



MET'MAP, la Météo Aéronautique d'un coup d'oeil ! - Copyright ORBIFLY Décembre 2007 - Disclaimer

ORBIFLY MET'MAP TEAM :

Programmation & Développement : Alexandra Zaïnal
Conception & Développement : Baudouin d'Aumeries
Co-Programmation & Développement : Marc-Olivier Méhu
Soutien technique & logistique : Manuel Goepfert

Contact : metmap@orbifly.com




SOURCES & CREDITS :

   NOAA